createdAt,value
2023-02-02T00:02:10.171Z,17.58
2023-02-02T00:04:38.852Z,20.55
2023-02-02T00:07:07.567Z,12.60
2023-02-02T00:09:36.091Z,10.32
2023-02-02T00:12:06.551Z,17.17
2023-02-02T00:14:35.255Z,18.17
2023-02-02T00:17:04.904Z,9.90
2023-02-02T00:19:33.522Z,20.90
2023-02-02T00:22:02.151Z,20.00
2023-02-02T00:24:31.137Z,20.42
2023-02-02T00:27:01.370Z,13.30
2023-02-02T00:29:32.579Z,11.93
2023-02-02T00:32:01.084Z,18.48
2023-02-02T00:34:29.802Z,20.65
2023-02-02T00:36:58.285Z,17.27
2023-02-02T00:39:27.726Z,27.05
2023-02-02T00:41:56.369Z,20.08
2023-02-02T00:44:42.613Z,24.55
2023-02-02T00:47:12.799Z,21.38
2023-02-02T00:49:41.369Z,22.45
2023-02-02T00:52:09.967Z,27.17
2023-02-02T00:54:38.417Z,15.30
2023-02-02T00:57:07.053Z,25.58
2023-02-02T00:59:35.641Z,18.10
2023-02-02T01:02:04.217Z,26.40
2023-02-02T01:04:34.045Z,28.33
2023-02-02T01:07:02.547Z,22.50
2023-02-02T01:09:31.216Z,24.90
2023-02-02T01:11:59.799Z,28.02
2023-02-02T01:14:28.199Z,23.55
2023-02-02T01:16:56.749Z,20.48
2023-02-02T01:19:25.573Z,23.08
2023-02-02T01:21:55.409Z,28.58
2023-02-02T01:24:24.096Z,24.48
2023-02-02T01:26:52.619Z,22.10
2023-02-02T01:29:21.062Z,17.30
2023-02-02T01:31:50.015Z,23.13
2023-02-02T01:34:21.556Z,26.35
2023-02-02T01:36:50.308Z,19.35
2023-02-02T01:39:20.247Z,28.48
2023-02-02T01:41:49.539Z,31.98
2023-02-02T01:44:55.328Z,25.17
2023-02-02T01:47:27.976Z,23.15
2023-02-02T01:49:57.093Z,31.15
2023-02-02T01:52:29.127Z,23.60
2023-02-02T01:55:04.285Z,16.65
2023-02-02T01:57:37.161Z,30.60
2023-02-02T02:00:09.586Z,35.95
2023-02-02T02:02:40.221Z,31.13
2023-02-02T02:05:10.754Z,31.83
2023-02-02T02:07:43.347Z,29.75
2023-02-02T02:10:13.446Z,28.27
2023-02-02T02:12:41.973Z,31.05
2023-02-02T02:15:29.349Z,28.48
2023-02-02T02:18:08.544Z,38.20
2023-02-02T02:21:42.515Z,24.48
2023-02-02T02:25:15.331Z,34.80
2023-02-02T02:28:24.644Z,30.00
2023-02-02T02:31:35.446Z,33.13
2023-02-02T02:34:10.915Z,28.15
2023-02-02T02:36:49.326Z,27.52
2023-02-02T02:39:26.366Z,37.05
2023-02-02T02:42:00.109Z,39.50
2023-02-02T02:44:32.588Z,33.92
2023-02-02T02:47:02.017Z,35.47
2023-02-02T02:49:31.948Z,47.22
2023-02-02T02:52:00.462Z,43.22
2023-02-02T02:54:32.509Z,40.63
2023-02-02T02:57:15.065Z,34.08
2023-02-02T02:59:56.864Z,37.97
2023-02-02T03:02:37.369Z,40.38
2023-02-02T03:05:23.096Z,27.90
2023-02-02T03:07:59.572Z,45.67
2023-02-02T03:10:31.497Z,33.55
2023-02-02T03:13:00.117Z,41.72
2023-02-02T03:15:28.689Z,39.08
2023-02-02T03:17:57.291Z,34.72
2023-02-02T03:20:27.643Z,38.80
2023-02-02T03:22:56.322Z,25.80
2023-02-02T03:25:25.098Z,30.67
2023-02-02T03:27:54.733Z,27.13
2023-02-02T03:30:23.683Z,26.58
2023-02-02T03:32:53.830Z,35.22
2023-02-02T03:35:22.577Z,24.30
2023-02-02T03:37:53.188Z,18.60
2023-02-02T03:40:21.696Z,21.25
2023-02-02T03:42:50.210Z,18.52
2023-02-02T03:45:18.889Z,30.65
2023-02-02T03:47:47.547Z,18.25
2023-02-02T03:50:16.454Z,25.00
2023-02-02T03:52:44.886Z,18.30
2023-02-02T03:55:14.774Z,18.42
2023-02-02T03:57:43.367Z,22.52
2023-02-02T04:00:12.853Z,20.83
2023-02-02T04:02:41.423Z,24.38
2023-02-02T04:05:09.949Z,20.15
2023-02-02T04:07:38.600Z,23.13
2023-02-02T04:10:07.702Z,14.43
2023-02-02T04:12:37.572Z,23.65
2023-02-02T04:15:07.336Z,23.83
2023-02-02T04:17:36.295Z,17.73
2023-02-02T04:20:05.226Z,31.10
2023-02-02T04:22:34.555Z,13.70
2023-02-02T04:25:03.042Z,16.70
2023-02-02T04:27:33.815Z,13.35
2023-02-02T04:30:03.945Z,14.98
2023-02-02T04:32:32.423Z,19.10
2023-02-02T04:35:00.959Z,17.33
2023-02-02T04:37:31.758Z,22.45
2023-02-02T04:40:00.371Z,19.35
2023-02-02T04:42:29.293Z,18.55
2023-02-02T04:44:57.801Z,26.73
2023-02-02T04:47:27.668Z,28.80
2023-02-02T04:49:56.129Z,35.72
2023-02-02T04:52:24.811Z,31.60
2023-02-02T04:54:53.475Z,28.52
2023-02-02T04:57:21.953Z,41.50
2023-02-02T04:59:50.434Z,39.78
2023-02-02T05:02:19.501Z,43.42
2023-02-02T05:04:49.474Z,54.13
2023-02-02T05:07:17.916Z,52.22
2023-02-02T05:09:46.559Z,61.92
2023-02-02T05:12:15.033Z,56.08
2023-02-02T05:14:43.463Z,49.85
2023-02-02T05:17:12.039Z,49.92
2023-02-02T05:19:40.475Z,53.05
2023-02-02T05:22:10.274Z,49.70
2023-02-02T05:24:38.704Z,47.10
2023-02-02T05:27:07.293Z,45.92
2023-02-02T05:29:35.860Z,45.88
2023-02-02T05:32:04.583Z,48.10
2023-02-02T05:34:32.995Z,55.60
2023-02-02T05:37:01.414Z,52.22
2023-02-02T05:39:31.139Z,48.53
2023-02-02T05:41:59.929Z,43.55
2023-02-02T05:44:29.451Z,50.85
2023-02-02T05:46:57.901Z,47.05
2023-02-02T05:49:26.579Z,54.38
2023-02-02T05:51:58.028Z,63.65
2023-02-02T05:54:26.599Z,46.67
2023-02-02T05:56:57.345Z,44.00
2023-02-02T05:59:26.817Z,43.80
2023-02-02T06:01:55.414Z,44.95
2023-02-02T06:04:24.009Z,37.55
2023-02-02T06:06:52.495Z,42.55
2023-02-02T06:09:20.913Z,52.78
2023-02-02T06:11:49.632Z,48.50
2023-02-02T06:14:20.802Z,53.72
2023-02-02T06:16:49.173Z,51.90
2023-02-02T06:19:17.757Z,67.75
2023-02-02T06:21:46.547Z,36.60
2023-02-02T06:24:15.572Z,53.63
2023-02-02T06:26:44.071Z,45.55
2023-02-02T06:29:13.620Z,61.70
2023-02-02T06:31:43.429Z,48.45
2023-02-02T06:34:14.567Z,54.58
2023-02-02T06:36:43.555Z,59.90
2023-02-02T06:39:11.961Z,46.38
2023-02-02T06:41:40.600Z,53.90
2023-02-02T06:44:09.271Z,46.60
2023-02-02T06:46:37.751Z,38.20
2023-02-02T06:49:07.677Z,49.58
2023-02-02T06:51:36.124Z,49.47
2023-02-02T06:54:04.894Z,45.00
2023-02-02T06:56:33.360Z,42.53
2023-02-02T06:59:01.821Z,53.03
2023-02-02T07:01:30.579Z,50.65
2023-02-02T07:03:59.361Z,46.72
2023-02-02T07:06:29.959Z,45.88
2023-02-02T07:09:05.368Z,46.78
2023-02-02T07:11:37.577Z,48.53
2023-02-02T07:14:09.505Z,45.92
2023-02-02T07:16:38.094Z,62.40
2023-02-02T07:19:06.607Z,48.05
2023-02-02T07:21:36.695Z,48.83
2023-02-02T07:24:07.347Z,46.72
2023-02-02T07:26:37.056Z,42.72
2023-02-02T07:29:06.664Z,55.33
2023-02-02T07:31:36.776Z,40.22
2023-02-02T07:34:05.560Z,50.08
2023-02-02T07:36:36.150Z,50.70
2023-02-02T07:39:06.936Z,50.67
2023-02-02T07:41:37.343Z,50.30
2023-02-02T07:44:07.196Z,54.20
2023-02-02T07:46:35.678Z,45.00
2023-02-02T07:49:06.049Z,39.80
2023-02-02T07:51:38.062Z,46.95
2023-02-02T07:54:08.564Z,41.60
2023-02-02T07:56:39.475Z,44.47
2023-02-02T07:59:08.115Z,46.03
2023-02-02T08:01:36.632Z,45.65
2023-02-02T08:04:05.547Z,49.30
2023-02-02T08:06:45.824Z,45.08
2023-02-02T08:09:14.654Z,43.80
2023-02-02T08:11:44.547Z,51.70
2023-02-02T08:14:15.829Z,43.25
2023-02-02T08:16:50.528Z,45.83
2023-02-02T08:19:24.331Z,38.85
2023-02-02T08:21:56.622Z,41.80
2023-02-02T08:24:26.615Z,50.33
2023-02-02T08:27:06.384Z,42.03
2023-02-02T08:29:40.790Z,39.70
2023-02-02T08:32:15.986Z,42.65
2023-02-02T08:34:56.323Z,42.47
2023-02-02T08:37:30.684Z,40.92
2023-02-02T08:40:00.716Z,51.55
2023-02-02T08:42:32.942Z,36.83
2023-02-02T08:46:01.492Z,34.20
2023-02-02T08:48:11.732Z,42.67
2023-02-02T08:50:44.680Z,47.85
2023-02-02T08:53:14.647Z,40.90
2023-02-02T08:55:43.469Z,41.22
2023-02-02T08:58:11.893Z,50.53
2023-02-02T09:00:40.548Z,37.83
2023-02-02T09:03:09.251Z,40.65
2023-02-02T09:05:39.126Z,41.28
2023-02-02T09:08:07.560Z,34.08
2023-02-02T09:10:55.097Z,32.70
2023-02-02T09:16:29.904Z,34.58
2023-02-02T09:19:05.669Z,32.90
2023-02-02T09:21:41.551Z,33.47
2023-02-02T09:24:16.353Z,43.05
2023-02-02T09:26:49.468Z,31.05
2023-02-02T09:29:18.880Z,40.50
2023-02-02T09:31:47.951Z,34.88
2023-02-02T09:34:22.384Z,35.35
2023-02-02T09:36:57.379Z,34.00
2023-02-02T09:39:30.395Z,27.60
2023-02-02T09:42:29.427Z,37.10
2023-02-02T09:45:20.129Z,35.17
2023-02-02T09:47:57.633Z,30.77
2023-02-02T09:50:40.566Z,30.95
2023-02-02T09:53:16.907Z,29.65
2023-02-02T09:55:47.612Z,26.33
2023-02-02T09:58:23.019Z,27.27
2023-02-02T10:01:00.374Z,30.25
2023-02-02T10:03:34.566Z,38.08
2023-02-02T10:06:08.723Z,26.65
2023-02-02T10:08:43.202Z,25.38
2023-02-02T10:11:28.444Z,26.58
2023-02-02T10:14:03.882Z,26.83
2023-02-02T10:16:35.117Z,30.75
2023-02-02T10:19:05.714Z,27.02
2023-02-02T10:21:41.870Z,31.63
2023-02-02T10:24:18.651Z,31.63
2023-02-02T10:26:51.506Z,36.33
2023-02-02T10:29:48.121Z,28.52
2023-02-02T10:32:24.723Z,40.22
2023-02-02T10:35:14.546Z,43.22
2023-02-02T10:37:50.312Z,43.00
2023-02-02T10:40:32.720Z,41.05
2023-02-02T10:43:47.995Z,51.70
2023-02-02T10:46:23.967Z,41.38
2023-02-02T10:49:10.097Z,38.20
2023-02-02T10:51:41.119Z,38.22
2023-02-02T10:54:26.034Z,35.83
2023-02-02T10:56:59.998Z,53.55
2023-02-02T10:59:33.444Z,44.53
2023-02-02T11:02:18.998Z,46.15
2023-02-02T11:05:06.968Z,44.03
2023-02-02T11:07:37.767Z,42.58
2023-02-02T11:10:12.105Z,41.50
2023-02-02T11:12:46.664Z,47.17
2023-02-02T11:15:26.803Z,45.95
2023-02-02T11:17:57.037Z,51.47
2023-02-02T11:20:33.559Z,48.08
2023-02-02T11:23:04.586Z,47.55
2023-02-02T11:25:35.496Z,36.75
2023-02-02T11:28:18.731Z,57.65
2023-02-02T11:30:50.467Z,45.53
2023-02-02T11:33:29.002Z,44.38
2023-02-02T11:36:01.193Z,43.25
2023-02-02T11:38:30.512Z,48.55
2023-02-02T11:41:03.663Z,40.17
2023-02-02T11:43:40.917Z,53.42
2023-02-02T11:46:19.876Z,48.13
2023-02-02T11:48:56.161Z,41.28
2023-02-02T11:51:27.121Z,48.55
2023-02-02T11:54:06.167Z,45.85
2023-02-02T11:56:36.536Z,47.95
2023-02-02T11:59:06.260Z,57.97
2023-02-02T12:01:36.934Z,57.78
2023-02-02T12:04:25.488Z,56.88
2023-02-02T12:06:54.410Z,51.88
2023-02-02T12:09:25.143Z,44.42
2023-02-02T12:12:02.311Z,41.75
2023-02-02T12:14:43.460Z,43.90
2023-02-02T12:17:26.474Z,50.13
2023-02-02T12:20:19.561Z,40.03
2023-02-02T12:23:09.543Z,50.15
2023-02-02T12:26:02.520Z,32.50
2023-02-02T12:28:50.294Z,38.63
2023-02-02T12:31:30.122Z,45.13
2023-02-02T12:34:11.526Z,31.20
2023-02-02T12:36:54.029Z,31.92
2023-02-02T12:39:32.101Z,34.33
2023-02-02T12:42:23.666Z,47.58
2023-02-02T12:45:20.932Z,41.10
2023-02-02T12:48:02.269Z,48.30
2023-02-02T12:50:42.585Z,53.90
2023-02-02T12:53:37.961Z,40.83
2023-02-02T12:56:20.856Z,29.90
2023-02-02T12:59:00.741Z,47.33
2023-02-02T13:01:41.844Z,35.97
2023-02-02T13:04:33.805Z,42.97
2023-02-02T13:07:30.884Z,39.20
2023-02-02T13:10:19.606Z,41.42
2023-02-02T13:12:54.060Z,44.67
2023-02-02T13:15:25.069Z,34.63
2023-02-02T13:17:56.106Z,42.10
2023-02-02T13:20:36.086Z,44.00
2023-02-02T13:23:10.840Z,32.88
2023-02-02T13:25:48.726Z,37.20
2023-02-02T13:28:26.531Z,36.80
2023-02-02T13:31:00.416Z,55.17
2023-02-02T13:33:34.037Z,47.05
2023-02-02T13:36:08.373Z,43.70
2023-02-02T13:38:42.170Z,53.47
2023-02-02T13:41:13.966Z,50.35
2023-02-02T13:43:53.777Z,47.70
2023-02-02T13:46:30.724Z,50.58
2023-02-02T13:49:06.741Z,54.85
2023-02-02T13:51:46.612Z,61.45
2023-02-02T13:54:50.618Z,46.55
2023-02-02T13:57:42.253Z,49.35
2023-02-02T14:00:18.424Z,45.85
2023-02-02T14:02:50.304Z,43.25
2023-02-02T14:05:26.022Z,45.67
2023-02-02T14:08:02.136Z,46.30
2023-02-02T14:10:34.932Z,50.00
2023-02-02T14:13:35.217Z,41.10
2023-02-02T14:16:07.027Z,33.67
2023-02-02T14:18:54.444Z,42.17
2023-02-02T14:21:56.404Z,46.58
2023-02-02T14:24:45.988Z,40.35
2023-02-02T14:28:01.563Z,41.33
2023-02-02T14:30:35.224Z,45.92
2023-02-02T14:33:38.495Z,45.40
2023-02-02T14:36:16.842Z,31.83
2023-02-02T14:39:04.870Z,47.35
2023-02-02T14:42:06.283Z,36.40
2023-02-02T14:44:38.206Z,45.67
2023-02-02T14:47:42.381Z,42.40
2023-02-02T14:50:22.425Z,46.40
2023-02-02T14:53:01.866Z,53.30
2023-02-02T14:55:32.050Z,38.88
2023-02-02T14:58:06.918Z,42.50
2023-02-02T15:01:09.687Z,47.00
2023-02-02T15:03:53.232Z,44.97
2023-02-02T15:06:35.022Z,47.30
2023-02-02T15:09:36.839Z,49.65
2023-02-02T15:12:20.199Z,50.72
2023-02-02T15:14:52.800Z,43.35
2023-02-02T15:17:29.072Z,50.22
2023-02-02T15:20:09.658Z,44.92
2023-02-02T15:22:47.486Z,45.72
2023-02-02T15:25:22.978Z,59.30
2023-02-02T15:27:58.513Z,44.17
2023-02-02T15:30:33.608Z,41.80
2023-02-02T15:33:08.848Z,42.22
2023-02-02T15:35:38.378Z,40.22
2023-02-02T15:38:16.371Z,53.03
2023-02-02T15:40:46.236Z,46.05
2023-02-02T15:43:17.986Z,50.63
2023-02-02T15:45:54.138Z,38.70
2023-02-02T15:48:27.007Z,55.20
2023-02-02T15:50:56.125Z,30.95
2023-02-02T15:53:29.641Z,39.78
2023-02-02T15:55:58.495Z,41.40
2023-02-02T15:58:33.291Z,43.85
2023-02-02T16:01:07.997Z,31.45
2023-02-02T16:03:47.109Z,37.60
2023-02-02T16:06:16.469Z,40.70
2023-02-02T16:08:47.407Z,42.10
2023-02-02T16:11:23.248Z,42.65
2023-02-02T16:14:01.669Z,51.28
2023-02-02T16:16:32.139Z,38.50
2023-02-02T16:19:12.866Z,48.13
2023-02-02T16:21:47.727Z,42.08
2023-02-02T16:24:33.176Z,42.20
2023-02-02T16:27:03.946Z,44.20
2023-02-02T16:29:34.110Z,48.10
2023-02-02T16:32:02.965Z,50.10
2023-02-02T16:34:49.269Z,52.83
2023-02-02T16:37:25.444Z,43.58
2023-02-02T16:39:58.498Z,43.10
2023-02-02T16:42:36.573Z,48.53
2023-02-02T16:45:07.117Z,49.50
2023-02-02T16:47:40.248Z,45.83
2023-02-02T16:50:28.616Z,41.55
2023-02-02T16:53:02.220Z,44.70
2023-02-02T16:55:50.040Z,41.15
2023-02-02T16:58:24.084Z,42.65
2023-02-02T17:01:15.362Z,41.22
2023-02-02T17:03:52.810Z,38.58
2023-02-02T17:06:46.193Z,48.47
2023-02-02T17:09:34.374Z,42.05
2023-02-02T17:12:33.248Z,45.45
2023-02-02T17:15:24.442Z,40.45
2023-02-02T17:17:53.620Z,36.90
2023-02-02T17:20:23.095Z,39.50
2023-02-02T17:22:55.534Z,44.10
2023-02-02T17:25:30.858Z,41.65
2023-02-02T17:28:01.905Z,45.80
2023-02-02T17:30:31.552Z,52.58
2023-02-02T17:33:00.232Z,47.20
2023-02-02T17:35:39.929Z,53.10
2023-02-02T17:38:17.425Z,62.38
2023-02-02T17:40:46.041Z,50.00
2023-02-02T17:43:16.090Z,54.15
2023-02-02T17:45:44.896Z,52.47
2023-02-02T17:48:14.704Z,51.70
2023-02-02T17:50:44.245Z,46.40
2023-02-02T17:53:13.903Z,53.92
2023-02-02T17:55:44.199Z,45.72
2023-02-02T17:58:17.416Z,45.75
2023-02-02T18:00:47.665Z,34.20
2023-02-02T18:03:21.048Z,33.67
2023-02-02T18:05:51.298Z,38.97
2023-02-02T18:08:20.262Z,35.15
2023-02-02T18:10:48.702Z,37.20
2023-02-02T18:13:20.829Z,42.15
2023-02-02T18:15:49.840Z,30.30
2023-02-02T18:18:19.805Z,37.00
2023-02-02T18:20:50.245Z,30.08
2023-02-02T18:23:20.067Z,26.55
2023-02-02T18:25:48.641Z,29.77
2023-02-02T18:28:18.673Z,30.15
2023-02-02T18:30:48.143Z,26.02
2023-02-02T18:33:19.767Z,25.27
2023-02-02T18:35:49.688Z,32.13
2023-02-02T18:38:19.735Z,27.30
2023-02-02T18:40:55.989Z,28.45
2023-02-02T18:43:26.076Z,25.27
2023-02-02T18:46:00.340Z,26.10
2023-02-02T18:48:30.074Z,28.55
2023-02-02T18:50:58.689Z,28.08
2023-02-02T18:53:27.413Z,27.40
2023-02-02T18:55:56.157Z,28.75
2023-02-02T18:58:27.604Z,32.92
2023-02-02T19:00:56.497Z,33.15
2023-02-02T19:03:25.184Z,30.05
2023-02-02T19:06:11.126Z,37.65
2023-02-02T19:08:39.989Z,37.92
2023-02-02T19:11:15.506Z,33.05
2023-02-02T19:13:46.001Z,38.13
2023-02-02T19:16:22.131Z,44.67
2023-02-02T19:18:51.155Z,38.80
2023-02-02T19:21:19.711Z,44.95
2023-02-02T19:23:48.653Z,51.33
2023-02-02T19:26:24.832Z,49.92
2023-02-02T19:28:58.612Z,55.25
2023-02-02T19:31:27.531Z,61.10
2023-02-02T19:33:56.613Z,63.72
2023-02-02T19:36:27.696Z,57.10
2023-02-02T19:39:02.358Z,61.80
2023-02-02T19:41:31.661Z,63.13
2023-02-02T19:44:10.477Z,61.85
2023-02-02T19:46:43.329Z,56.22
2023-02-02T19:49:14.519Z,57.28
2023-02-02T19:51:48.646Z,65.10
2023-02-02T19:54:33.357Z,64.75
2023-02-02T19:57:07.414Z,62.97
2023-02-02T19:59:37.448Z,61.20
2023-02-02T20:02:30.279Z,65.07
2023-02-02T20:05:02.928Z,69.57
2023-02-02T20:07:31.909Z,76.75
2023-02-02T20:10:16.066Z,74.80
2023-02-02T20:12:44.783Z,62.05
2023-02-02T20:15:27.175Z,64.60
2023-02-02T20:17:59.057Z,66.45
2023-02-02T20:20:30.088Z,68.63
2023-02-02T20:22:58.917Z,66.28
2023-02-02T20:25:29.174Z,59.42
2023-02-02T20:28:07.893Z,62.05
2023-02-02T20:30:38.080Z,53.55
2023-02-02T20:33:21.882Z,60.95
2023-02-02T20:35:51.479Z,67.82
2023-02-02T20:38:23.785Z,64.40
2023-02-02T20:40:53.175Z,51.80
2023-02-02T20:43:22.104Z,64.63
2023-02-02T20:45:55.035Z,55.42
2023-02-02T20:48:25.637Z,71.43
2023-02-02T20:50:54.363Z,49.67
2023-02-02T20:53:23.250Z,59.05
2023-02-02T20:55:57.472Z,53.45
2023-02-02T20:58:26.541Z,60.85
2023-02-02T21:00:56.926Z,68.45
2023-02-02T21:03:25.793Z,60.10
2023-02-02T21:05:54.565Z,59.15
2023-02-02T21:08:39.979Z,54.13
2023-02-02T21:11:10.393Z,70.63
2023-02-02T21:13:47.558Z,53.28
2023-02-02T21:16:20.746Z,58.50
2023-02-02T21:18:51.517Z,58.10
2023-02-02T21:21:22.937Z,60.65
2023-02-02T21:23:56.577Z,55.28
2023-02-02T21:26:30.526Z,57.63
2023-02-02T21:29:04.944Z,58.67
2023-02-02T21:31:40.659Z,57.30
2023-02-02T21:34:11.367Z,51.13
2023-02-02T21:36:44.619Z,53.80
2023-02-02T21:39:22.236Z,54.00
2023-02-02T21:41:54.226Z,52.80
2023-02-02T21:44:24.145Z,50.88
2023-02-02T21:46:57.909Z,52.03
2023-02-02T21:49:29.067Z,45.42
2023-02-02T21:52:03.342Z,48.22
2023-02-02T21:54:39.018Z,46.95
2023-02-02T21:57:17.550Z,44.58
2023-02-02T21:59:47.535Z,47.80
2023-02-02T22:02:38.299Z,51.40
2023-02-02T22:05:17.289Z,46.28
2023-02-02T22:13:21.868Z,44.78
2023-02-02T22:15:54.345Z,46.83
2023-02-02T22:18:26.881Z,52.65
2023-02-02T22:20:56.846Z,49.15
2023-02-02T22:23:28.258Z,49.20
2023-02-02T22:25:59.122Z,45.15
2023-02-02T22:28:30.882Z,50.45
2023-02-02T22:31:01.102Z,47.47
2023-02-02T22:33:32.487Z,46.83
2023-02-02T22:36:00.958Z,46.17
2023-02-02T22:38:29.396Z,51.72
2023-02-02T22:40:58.119Z,51.22
2023-02-02T22:43:26.697Z,41.25
2023-02-02T22:45:55.214Z,47.83
2023-02-02T22:48:23.698Z,51.28
2023-02-02T22:50:53.464Z,50.28
2023-02-02T22:53:22.062Z,45.95
2023-02-02T22:55:56.287Z,46.97
2023-02-02T22:58:25.904Z,56.90
2023-02-02T23:00:54.385Z,50.00
2023-02-02T23:03:23.071Z,50.97
2023-02-02T23:05:52.914Z,47.92
2023-02-02T23:08:21.476Z,49.35
2023-02-02T23:10:49.976Z,50.47
2023-02-02T23:13:20.164Z,42.08
2023-02-02T23:15:48.857Z,46.83
2023-02-02T23:18:17.483Z,57.38
2023-02-02T23:20:48.691Z,47.25
2023-02-02T23:23:18.597Z,51.70
2023-02-02T23:25:47.010Z,47.70
2023-02-02T23:28:15.698Z,47.13
2023-02-02T23:30:44.217Z,44.92
2023-02-02T23:33:12.726Z,52.50
2023-02-02T23:35:41.112Z,42.72
2023-02-02T23:38:09.688Z,46.15
2023-02-02T23:40:39.881Z,42.35
2023-02-02T23:43:08.444Z,47.08
2023-02-02T23:45:38.780Z,44.15
2023-02-02T23:48:08.492Z,47.30
2023-02-02T23:50:38.394Z,44.92
2023-02-02T23:53:08.669Z,48.05
2023-02-02T23:55:39.017Z,39.75
2023-02-02T23:58:07.701Z,41.38
